sensor_id;sensor_type;location;lat;lon;timestamp;P1;durP1;ratioP1;P2;durP2;ratioP2
70970;SDS011;58632;51.718;19.446;2023-08-31T00:00:29;9.00;;;6.10;;
70970;SDS011;58632;51.718;19.446;2023-08-31T00:03:16;11.90;;;6.10;;
70970;SDS011;58632;51.718;19.446;2023-08-31T00:06:02;8.20;;;6.60;;
70970;SDS011;58632;51.718;19.446;2023-08-31T00:08:29;7.10;;;6.40;;
70970;SDS011;58632;51.718;19.446;2023-08-31T00:10:56;7.50;;;6.30;;
70970;SDS011;58632;51.718;19.446;2023-08-31T00:13:22;7.90;;;6.70;;
70970;SDS011;58632;51.718;19.446;2023-08-31T00:18:14;8.20;;;6.20;;
70970;SDS011;58632;51.718;19.446;2023-08-31T00:20:41;7.30;;;5.80;;
70970;SDS011;58632;51.718;19.446;2023-08-31T00:23:10;9.00;;;5.80;;
70970;SDS011;58632;51.718;19.446;2023-08-31T00:25:36;7.40;;;5.80;;
70970;SDS011;58632;51.718;19.446;2023-08-31T00:28:01;6.50;;;5.70;;
70970;SDS011;58632;51.718;19.446;2023-08-31T00:30:30;6.40;;;5.10;;
70970;SDS011;58632;51.718;19.446;2023-08-31T00:32:59;8.50;;;5.90;;
70970;SDS011;58632;51.718;19.446;2023-08-31T00:35:26;6.30;;;5.50;;
70970;SDS011;58632;51.718;19.446;2023-08-31T00:37:55;6.70;;;5.60;;
70970;SDS011;58632;51.718;19.446;2023-08-31T00:40:24;6.80;;;5.20;;
70970;SDS011;58632;51.718;19.446;2023-08-31T00:42:50;10.10;;;5.30;;
70970;SDS011;58632;51.718;19.446;2023-08-31T00:45:17;5.40;;;4.50;;
70970;SDS011;58632;51.718;19.446;2023-08-31T00:47:44;6.70;;;4.30;;
70970;SDS011;58632;51.718;19.446;2023-08-31T00:50:12;6.50;;;4.70;;
70970;SDS011;58632;51.718;19.446;2023-08-31T00:52:38;6.50;;;4.60;;
70970;SDS011;58632;51.718;19.446;2023-08-31T00:55:04;5.70;;;4.60;;
70970;SDS011;58632;51.718;19.446;2023-08-31T00:57:30;7.40;;;4.80;;
70970;SDS011;58632;51.718;19.446;2023-08-31T00:59:56;7.00;;;4.70;;
70970;SDS011;58632;51.718;19.446;2023-08-31T01:05:01;6.10;;;4.60;;
70970;SDS011;58632;51.718;19.446;2023-08-31T01:07:43;6.90;;;4.30;;
70970;SDS011;58632;51.718;19.446;2023-08-31T01:12:45;5.90;;;4.70;;
70970;SDS011;58632;51.718;19.446;2023-08-31T01:15:26;6.50;;;4.90;;
70970;SDS011;58632;51.718;19.446;2023-08-31T01:17:56;6.80;;;4.10;;
70970;SDS011;58632;51.718;19.446;2023-08-31T01:20:41;8.50;;;4.30;;
70970;SDS011;58632;51.718;19.446;2023-08-31T01:23:18;6.50;;;4.00;;
70970;SDS011;58632;51.718;19.446;2023-08-31T01:25:45;6.70;;;4.00;;
70970;SDS011;58632;51.718;19.446;2023-08-31T01:28:15;8.10;;;4.70;;
70970;SDS011;58632;51.718;19.446;2023-08-31T01:30:41;7.50;;;4.80;;
70970;SDS011;58632;51.718;19.446;2023-08-31T01:33:07;6.80;;;4.60;;
70970;SDS011;58632;51.718;19.446;2023-08-31T01:35:33;6.40;;;4.30;;
70970;SDS011;58632;51.718;19.446;2023-08-31T01:38:04;5.70;;;4.00;;
70970;SDS011;58632;51.718;19.446;2023-08-31T01:43:01;5.90;;;4.10;;
70970;SDS011;58632;51.718;19.446;2023-08-31T01:45:32;5.60;;;3.90;;
70970;SDS011;58632;51.718;19.446;2023-08-31T01:48:01;7.80;;;4.60;;
70970;SDS011;58632;51.718;19.446;2023-08-31T01:50:26;5.00;;;4.00;;
70970;SDS011;58632;51.718;19.446;2023-08-31T01:52:52;5.40;;;4.20;;
70970;SDS011;58632;51.718;19.446;2023-08-31T01:55:23;7.40;;;4.40;;
70970;SDS011;58632;51.718;19.446;2023-08-31T01:57:49;7.00;;;4.10;;
70970;SDS011;58632;51.718;19.446;2023-08-31T02:00:16;7.20;;;4.00;;
70970;SDS011;58632;51.718;19.446;2023-08-31T02:02:43;6.00;;;4.00;;
70970;SDS011;58632;51.718;19.446;2023-08-31T02:05:09;5.40;;;4.50;;
70970;SDS011;58632;51.718;19.446;2023-08-31T02:07:35;5.90;;;4.20;;
70970;SDS011;58632;51.718;19.446;2023-08-31T02:10:01;7.90;;;4.40;;
70970;SDS011;58632;51.718;19.446;2023-08-31T02:12:31;7.00;;;4.20;;
70970;SDS011;58632;51.718;19.446;2023-08-31T02:15:00;5.70;;;4.50;;
70970;SDS011;58632;51.718;19.446;2023-08-31T02:17:26;5.90;;;4.00;;
70970;SDS011;58632;51.718;19.446;2023-08-31T02:19:51;5.70;;;4.60;;
70970;SDS011;58632;51.718;19.446;2023-08-31T02:22:17;7.70;;;4.90;;
70970;SDS011;58632;51.718;19.446;2023-08-31T02:24:42;9.60;;;4.70;;
70970;SDS011;58632;51.718;19.446;2023-08-31T02:27:08;5.60;;;5.00;;
70970;SDS011;58632;51.718;19.446;2023-08-31T02:29:36;6.60;;;4.60;;
70970;SDS011;58632;51.718;19.446;2023-08-31T02:32:04;8.40;;;4.90;;
70970;SDS011;58632;51.718;19.446;2023-08-31T02:34:30;7.90;;;4.40;;
70970;SDS011;58632;51.718;19.446;2023-08-31T02:36:56;7.50;;;5.10;;
70970;SDS011;58632;51.718;19.446;2023-08-31T02:39:21;7.40;;;5.30;;
70970;SDS011;58632;51.718;19.446;2023-08-31T02:41:47;6.70;;;5.30;;
70970;SDS011;58632;51.718;19.446;2023-08-31T02:44:12;8.00;;;5.40;;
70970;SDS011;58632;51.718;19.446;2023-08-31T02:46:38;7.70;;;5.10;;
70970;SDS011;58632;51.718;19.446;2023-08-31T02:49:04;6.00;;;5.10;;
70970;SDS011;58632;51.718;19.446;2023-08-31T02:51:30;6.00;;;5.40;;
70970;SDS011;58632;51.718;19.446;2023-08-31T02:53:55;9.90;;;4.80;;
70970;SDS011;58632;51.718;19.446;2023-08-31T02:56:21;6.50;;;5.30;;
70970;SDS011;58632;51.718;19.446;2023-08-31T02:58:47;9.90;;;5.50;;
70970;SDS011;58632;51.718;19.446;2023-08-31T03:01:13;6.30;;;5.30;;
70970;SDS011;58632;51.718;19.446;2023-08-31T03:03:39;7.10;;;5.80;;
70970;SDS011;58632;51.718;19.446;2023-08-31T03:08:32;10.00;;;5.30;;
70970;SDS011;58632;51.718;19.446;2023-08-31T03:10:57;6.50;;;5.30;;
70970;SDS011;58632;51.718;19.446;2023-08-31T03:13:24;6.30;;;5.20;;
70970;SDS011;58632;51.718;19.446;2023-08-31T03:15:50;7.20;;;5.60;;
70970;SDS011;58632;51.718;19.446;2023-08-31T03:18:15;8.10;;;6.10;;
70970;SDS011;58632;51.718;19.446;2023-08-31T03:20:41;8.00;;;6.00;;
70970;SDS011;58632;51.718;19.446;2023-08-31T03:23:06;6.70;;;5.60;;
70970;SDS011;58632;51.718;19.446;2023-08-31T03:25:32;8.00;;;5.80;;
70970;SDS011;58632;51.718;19.446;2023-08-31T03:27:58;8.20;;;5.10;;
70970;SDS011;58632;51.718;19.446;2023-08-31T03:30:23;7.00;;;5.80;;
70970;SDS011;58632;51.718;19.446;2023-08-31T03:32:49;7.20;;;6.30;;
70970;SDS011;58632;51.718;19.446;2023-08-31T03:35:15;7.00;;;5.80;;
70970;SDS011;58632;51.718;19.446;2023-08-31T03:37:41;6.40;;;5.70;;
70970;SDS011;58632;51.718;19.446;2023-08-31T03:40:06;7.60;;;5.40;;
70970;SDS011;58632;51.718;19.446;2023-08-31T03:42:33;6.40;;;5.40;;
70970;SDS011;58632;51.718;19.446;2023-08-31T03:45:00;8.20;;;5.90;;
70970;SDS011;58632;51.718;19.446;2023-08-31T03:47:25;8.20;;;5.50;;
70970;SDS011;58632;51.718;19.446;2023-08-31T03:49:53;9.70;;;6.20;;
70970;SDS011;58632;51.718;19.446;2023-08-31T03:52:21;8.00;;;5.70;;
70970;SDS011;58632;51.718;19.446;2023-08-31T03:54:48;7.60;;;5.60;;
70970;SDS011;58632;51.718;19.446;2023-08-31T03:57:14;11.10;;;5.30;;
70970;SDS011;58632;51.718;19.446;2023-08-31T03:59:40;11.20;;;5.70;;
70970;SDS011;58632;51.718;19.446;2023-08-31T04:02:05;10.50;;;6.50;;
70970;SDS011;58632;51.718;19.446;2023-08-31T04:04:31;9.00;;;6.40;;
70970;SDS011;58632;51.718;19.446;2023-08-31T04:06:57;8.80;;;6.40;;
70970;SDS011;58632;51.718;19.446;2023-08-31T04:09:23;8.40;;;6.70;;
70970;SDS011;58632;51.718;19.446;2023-08-31T04:11:48;11.30;;;6.30;;
70970;SDS011;58632;51.718;19.446;2023-08-31T04:14:14;10.00;;;5.80;;
70970;SDS011;58632;51.718;19.446;2023-08-31T04:16:39;7.10;;;5.80;;
70970;SDS011;58632;51.718;19.446;2023-08-31T04:19:05;8.50;;;7.50;;
70970;SDS011;58632;51.718;19.446;2023-08-31T04:21:31;9.90;;;7.00;;
70970;SDS011;58632;51.718;19.446;2023-08-31T04:23:56;8.00;;;7.10;;
70970;SDS011;58632;51.718;19.446;2023-08-31T04:26:24;9.10;;;6.50;;
70970;SDS011;58632;51.718;19.446;2023-08-31T04:28:50;8.00;;;5.90;;
70970;SDS011;58632;51.718;19.446;2023-08-31T04:31:16;8.40;;;6.80;;
70970;SDS011;58632;51.718;19.446;2023-08-31T04:33:42;8.40;;;6.90;;
70970;SDS011;58632;51.718;19.446;2023-08-31T04:36:10;8.60;;;6.40;;
70970;SDS011;58632;51.718;19.446;2023-08-31T04:38:35;7.40;;;6.40;;
70970;SDS011;58632;51.718;19.446;2023-08-31T04:41:03;10.90;;;6.70;;
70970;SDS011;58632;51.718;19.446;2023-08-31T04:43:28;10.60;;;6.30;;
70970;SDS011;58632;51.718;19.446;2023-08-31T04:45:54;10.60;;;7.00;;
70970;SDS011;58632;51.718;19.446;2023-08-31T04:48:20;9.80;;;7.30;;
70970;SDS011;58632;51.718;19.446;2023-08-31T04:50:47;8.00;;;7.20;;
70970;SDS011;58632;51.718;19.446;2023-08-31T04:53:12;9.70;;;7.70;;
70970;SDS011;58632;51.718;19.446;2023-08-31T04:55:38;9.20;;;7.10;;
70970;SDS011;58632;51.718;19.446;2023-08-31T04:58:04;9.70;;;8.10;;
70970;SDS011;58632;51.718;19.446;2023-08-31T05:00:30;12.50;;;7.20;;
70970;SDS011;58632;51.718;19.446;2023-08-31T05:05:22;8.90;;;7.30;;
70970;SDS011;58632;51.718;19.446;2023-08-31T05:07:48;9.80;;;7.20;;
70970;SDS011;58632;51.718;19.446;2023-08-31T05:10:16;8.90;;;7.20;;
70970;SDS011;58632;51.718;19.446;2023-08-31T05:12:42;8.70;;;7.50;;
70970;SDS011;58632;51.718;19.446;2023-08-31T05:15:07;9.10;;;7.00;;
70970;SDS011;58632;51.718;19.446;2023-08-31T05:17:34;8.60;;;6.90;;
70970;SDS011;58632;51.718;19.446;2023-08-31T05:20:00;9.60;;;7.40;;
70970;SDS011;58632;51.718;19.446;2023-08-31T05:22:25;9.30;;;7.50;;
70970;SDS011;58632;51.718;19.446;2023-08-31T05:24:51;9.60;;;7.20;;
70970;SDS011;58632;51.718;19.446;2023-08-31T05:27:16;10.40;;;7.20;;
70970;SDS011;58632;51.718;19.446;2023-08-31T05:29:44;7.80;;;7.00;;
70970;SDS011;58632;51.718;19.446;2023-08-31T05:32:09;9.10;;;6.90;;
70970;SDS011;58632;51.718;19.446;2023-08-31T05:34:35;8.90;;;7.40;;
70970;SDS011;58632;51.718;19.446;2023-08-31T05:37:04;9.30;;;6.60;;
70970;SDS011;58632;51.718;19.446;2023-08-31T05:39:30;9.30;;;7.40;;
70970;SDS011;58632;51.718;19.446;2023-08-31T05:41:56;8.40;;;6.80;;
70970;SDS011;58632;51.718;19.446;2023-08-31T05:44:22;9.20;;;7.10;;
70970;SDS011;58632;51.718;19.446;2023-08-31T05:46:47;9.30;;;7.00;;
70970;SDS011;58632;51.718;19.446;2023-08-31T05:49:13;8.10;;;7.10;;
70970;SDS011;58632;51.718;19.446;2023-08-31T05:51:38;12.70;;;7.40;;
70970;SDS011;58632;51.718;19.446;2023-08-31T05:54:04;9.90;;;7.80;;
70970;SDS011;58632;51.718;19.446;2023-08-31T05:56:35;9.40;;;6.70;;
70970;SDS011;58632;51.718;19.446;2023-08-31T05:59:01;11.50;;;6.50;;
70970;SDS011;58632;51.718;19.446;2023-08-31T06:01:27;6.90;;;6.20;;
70970;SDS011;58632;51.718;19.446;2023-08-31T06:03:53;7.90;;;6.80;;
70970;SDS011;58632;51.718;19.446;2023-08-31T06:06:21;8.00;;;6.80;;
70970;SDS011;58632;51.718;19.446;2023-08-31T06:08:46;10.20;;;6.90;;
70970;SDS011;58632;51.718;19.446;2023-08-31T06:11:15;7.10;;;5.80;;
70970;SDS011;58632;51.718;19.446;2023-08-31T06:13:41;7.70;;;6.90;;
70970;SDS011;58632;51.718;19.446;2023-08-31T06:16:06;7.60;;;6.40;;
70970;SDS011;58632;51.718;19.446;2023-08-31T06:18:34;9.80;;;5.80;;
70970;SDS011;58632;51.718;19.446;2023-08-31T06:21:00;7.90;;;5.50;;
70970;SDS011;58632;51.718;19.446;2023-08-31T06:23:25;7.70;;;5.20;;
70970;SDS011;58632;51.718;19.446;2023-08-31T06:25:51;6.80;;;5.50;;
70970;SDS011;58632;51.718;19.446;2023-08-31T06:28:17;8.10;;;5.40;;
70970;SDS011;58632;51.718;19.446;2023-08-31T06:30:42;6.70;;;5.40;;
70970;SDS011;58632;51.718;19.446;2023-08-31T06:33:11;6.90;;;5.20;;
70970;SDS011;58632;51.718;19.446;2023-08-31T06:35:38;6.70;;;5.40;;
70970;SDS011;58632;51.718;19.446;2023-08-31T06:38:04;6.80;;;5.10;;
70970;SDS011;58632;51.718;19.446;2023-08-31T06:40:46;7.60;;;5.50;;
70970;SDS011;58632;51.718;19.446;2023-08-31T06:45:38;9.10;;;5.70;;
70970;SDS011;58632;51.718;19.446;2023-08-31T06:48:05;9.70;;;5.70;;
70970;SDS011;58632;51.718;19.446;2023-08-31T06:50:32;6.20;;;5.50;;
70970;SDS011;58632;51.718;19.446;2023-08-31T06:53:00;6.30;;;5.60;;
70970;SDS011;58632;51.718;19.446;2023-08-31T06:55:26;11.80;;;5.60;;
70970;SDS011;58632;51.718;19.446;2023-08-31T06:57:51;10.10;;;5.40;;
70970;SDS011;58632;51.718;19.446;2023-08-31T07:00:17;6.80;;;5.90;;
70970;SDS011;58632;51.718;19.446;2023-08-31T07:02:43;8.60;;;5.20;;
70970;SDS011;58632;51.718;19.446;2023-08-31T07:05:09;5.90;;;5.30;;
70970;SDS011;58632;51.718;19.446;2023-08-31T07:07:35;5.70;;;4.80;;
70970;SDS011;58632;51.718;19.446;2023-08-31T07:10:03;6.20;;;5.00;;
70970;SDS011;58632;51.718;19.446;2023-08-31T07:12:32;7.80;;;4.60;;
70970;SDS011;58632;51.718;19.446;2023-08-31T07:14:59;6.90;;;4.30;;
70970;SDS011;58632;51.718;19.446;2023-08-31T07:17:25;5.10;;;4.00;;
70970;SDS011;58632;51.718;19.446;2023-08-31T07:19:51;8.00;;;4.10;;
70970;SDS011;58632;51.718;19.446;2023-08-31T07:22:17;6.40;;;3.90;;
70970;SDS011;58632;51.718;19.446;2023-08-31T07:24:43;7.70;;;3.60;;
70970;SDS011;58632;51.718;19.446;2023-08-31T07:27:10;5.70;;;3.70;;
70970;SDS011;58632;51.718;19.446;2023-08-31T07:29:35;5.30;;;3.70;;
70970;SDS011;58632;51.718;19.446;2023-08-31T07:32:01;5.20;;;3.50;;
70970;SDS011;58632;51.718;19.446;2023-08-31T07:34:28;5.20;;;3.20;;
70970;SDS011;58632;51.718;19.446;2023-08-31T07:36:56;6.60;;;3.00;;
70970;SDS011;58632;51.718;19.446;2023-08-31T07:39:22;5.60;;;3.20;;
70970;SDS011;58632;51.718;19.446;2023-08-31T07:41:47;4.10;;;2.70;;
70970;SDS011;58632;51.718;19.446;2023-08-31T07:44:13;5.00;;;2.90;;
70970;SDS011;58632;51.718;19.446;2023-08-31T07:46:38;5.00;;;2.50;;
70970;SDS011;58632;51.718;19.446;2023-08-31T07:49:04;5.00;;;2.60;;
70970;SDS011;58632;51.718;19.446;2023-08-31T07:51:29;4.10;;;2.10;;
70970;SDS011;58632;51.718;19.446;2023-08-31T07:53:55;4.20;;;2.50;;
70970;SDS011;58632;51.718;19.446;2023-08-31T07:56:22;3.40;;;2.30;;
70970;SDS011;58632;51.718;19.446;2023-08-31T07:58:49;4.00;;;2.10;;
70970;SDS011;58632;51.718;19.446;2023-08-31T08:03:40;5.30;;;2.10;;
70970;SDS011;58632;51.718;19.446;2023-08-31T08:06:06;5.50;;;2.30;;
70970;SDS011;58632;51.718;19.446;2023-08-31T08:08:31;5.80;;;2.30;;
70970;SDS011;58632;51.718;19.446;2023-08-31T08:10:57;5.20;;;2.00;;
70970;SDS011;58632;51.718;19.446;2023-08-31T08:13:24;5.10;;;2.20;;
70970;SDS011;58632;51.718;19.446;2023-08-31T08:15:50;3.00;;;2.00;;
70970;SDS011;58632;51.718;19.446;2023-08-31T08:18:16;3.10;;;2.10;;
70970;SDS011;58632;51.718;19.446;2023-08-31T08:20:41;4.70;;;1.90;;
70970;SDS011;58632;51.718;19.446;2023-08-31T08:23:07;3.10;;;1.90;;
70970;SDS011;58632;51.718;19.446;2023-08-31T08:25:32;5.60;;;2.00;;
70970;SDS011;58632;51.718;19.446;2023-08-31T08:27:58;4.60;;;2.00;;
70970;SDS011;58632;51.718;19.446;2023-08-31T08:30:23;4.40;;;2.00;;
70970;SDS011;58632;51.718;19.446;2023-08-31T08:32:49;2.90;;;2.20;;
70970;SDS011;58632;51.718;19.446;2023-08-31T08:35:15;3.00;;;1.90;;
70970;SDS011;58632;51.718;19.446;2023-08-31T08:37:40;4.20;;;1.90;;
70970;SDS011;58632;51.718;19.446;2023-08-31T08:40:06;3.10;;;1.80;;
70970;SDS011;58632;51.718;19.446;2023-08-31T08:42:32;2.80;;;1.50;;
70970;SDS011;58632;51.718;19.446;2023-08-31T08:45:04;3.40;;;2.00;;
70970;SDS011;58632;51.718;19.446;2023-08-31T08:47:31;2.60;;;1.80;;
70970;SDS011;58632;51.718;19.446;2023-08-31T08:49:58;2.90;;;1.90;;
70970;SDS011;58632;51.718;19.446;2023-08-31T08:52:24;4.50;;;1.80;;
70970;SDS011;58632;51.718;19.446;2023-08-31T08:54:51;2.80;;;1.90;;
70970;SDS011;58632;51.718;19.446;2023-08-31T08:57:17;5.10;;;1.80;;
70970;SDS011;58632;51.718;19.446;2023-08-31T08:59:43;3.30;;;1.50;;
70970;SDS011;58632;51.718;19.446;2023-08-31T09:02:10;4.00;;;1.50;;
70970;SDS011;58632;51.718;19.446;2023-08-31T09:04:36;3.20;;;1.70;;
70970;SDS011;58632;51.718;19.446;2023-08-31T09:07:02;4.70;;;1.60;;
70970;SDS011;58632;51.718;19.446;2023-08-31T09:09:28;4.60;;;1.70;;
70970;SDS011;58632;51.718;19.446;2023-08-31T09:14:21;2.50;;;1.70;;
70970;SDS011;58632;51.718;19.446;2023-08-31T09:16:50;4.10;;;1.60;;
70970;SDS011;58632;51.718;19.446;2023-08-31T09:19:20;4.10;;;1.70;;
70970;SDS011;58632;51.718;19.446;2023-08-31T09:21:51;5.00;;;1.80;;
70970;SDS011;58632;51.718;19.446;2023-08-31T09:24:20;2.00;;;1.50;;
70970;SDS011;58632;51.718;19.446;2023-08-31T09:26:48;4.60;;;1.60;;
70970;SDS011;58632;51.718;19.446;2023-08-31T09:29:18;4.10;;;1.50;;
70970;SDS011;58632;51.718;19.446;2023-08-31T09:31:46;3.50;;;1.70;;
70970;SDS011;58632;51.718;19.446;2023-08-31T09:34:13;3.70;;;1.50;;
70970;SDS011;58632;51.718;19.446;2023-08-31T09:36:40;2.30;;;1.70;;
70970;SDS011;58632;51.718;19.446;2023-08-31T09:39:06;2.40;;;1.50;;
70970;SDS011;58632;51.718;19.446;2023-08-31T09:41:32;2.60;;;1.80;;
70970;SDS011;58632;51.718;19.446;2023-08-31T09:44:17;3.90;;;1.80;;
70970;SDS011;58632;51.718;19.446;2023-08-31T09:46:44;3.70;;;2.00;;
70970;SDS011;58632;51.718;19.446;2023-08-31T09:49:13;3.10;;;1.70;;
70970;SDS011;58632;51.718;19.446;2023-08-31T09:51:39;3.00;;;1.80;;
70970;SDS011;58632;51.718;19.446;2023-08-31T09:54:09;2.70;;;1.80;;
70970;SDS011;58632;51.718;19.446;2023-08-31T09:56:38;3.40;;;1.70;;
70970;SDS011;58632;51.718;19.446;2023-08-31T09:59:06;3.40;;;1.70;;
70970;SDS011;58632;51.718;19.446;2023-08-31T10:01:33;4.80;;;1.80;;
70970;SDS011;58632;51.718;19.446;2023-08-31T10:03:59;4.20;;;1.70;;
70970;SDS011;58632;51.718;19.446;2023-08-31T10:06:25;2.40;;;1.80;;
70970;SDS011;58632;51.718;19.446;2023-08-31T10:08:52;4.90;;;1.90;;
70970;SDS011;58632;51.718;19.446;2023-08-31T10:11:19;3.70;;;2.40;;
70970;SDS011;58632;51.718;19.446;2023-08-31T10:13:45;5.40;;;2.20;;
70970;SDS011;58632;51.718;19.446;2023-08-31T10:16:14;3.70;;;2.20;;
70970;SDS011;58632;51.718;19.446;2023-08-31T10:18:44;4.40;;;2.00;;
70970;SDS011;58632;51.718;19.446;2023-08-31T10:21:10;2.20;;;1.60;;
70970;SDS011;58632;51.718;19.446;2023-08-31T10:23:35;3.20;;;2.30;;
70970;SDS011;58632;51.718;19.446;2023-08-31T10:26:02;3.20;;;1.80;;
70970;SDS011;58632;51.718;19.446;2023-08-31T10:28:38;4.90;;;1.70;;
70970;SDS011;58632;51.718;19.446;2023-08-31T10:33:44;3.10;;;2.20;;
70970;SDS011;58632;51.718;19.446;2023-08-31T10:36:14;2.40;;;1.80;;
70970;SDS011;58632;51.718;19.446;2023-08-31T10:38:46;2.60;;;1.90;;
70970;SDS011;58632;51.718;19.446;2023-08-31T10:41:29;4.50;;;2.20;;
70970;SDS011;58632;51.718;19.446;2023-08-31T10:43:58;4.00;;;1.90;;
70970;SDS011;58632;51.718;19.446;2023-08-31T10:46:27;4.00;;;2.00;;
70970;SDS011;58632;51.718;19.446;2023-08-31T10:48:55;3.40;;;1.90;;
70970;SDS011;58632;51.718;19.446;2023-08-31T10:51:25;5.50;;;2.30;;
70970;SDS011;58632;51.718;19.446;2023-08-31T10:54:05;3.10;;;2.10;;
70970;SDS011;58632;51.718;19.446;2023-08-31T11:07:33;1.90;;;1.50;;
70970;SDS011;58632;51.718;19.446;2023-08-31T11:12:46;3.60;;;1.70;;
70970;SDS011;58632;51.718;19.446;2023-08-31T11:15:15;3.10;;;1.50;;
70970;SDS011;58632;51.718;19.446;2023-08-31T11:17:43;2.70;;;1.90;;
70970;SDS011;58632;51.718;19.446;2023-08-31T11:20:12;4.30;;;2.30;;
70970;SDS011;58632;51.718;19.446;2023-08-31T11:22:44;3.90;;;2.20;;
70970;SDS011;58632;51.718;19.446;2023-08-31T11:25:12;3.60;;;2.50;;
70970;SDS011;58632;51.718;19.446;2023-08-31T11:27:41;7.30;;;2.80;;
70970;SDS011;58632;51.718;19.446;2023-08-31T11:30:16;6.90;;;3.20;;
70970;SDS011;58632;51.718;19.446;2023-08-31T11:32:45;4.40;;;2.90;;
70970;SDS011;58632;51.718;19.446;2023-08-31T11:35:13;5.90;;;3.20;;
70970;SDS011;58632;51.718;19.446;2023-08-31T11:37:40;5.50;;;3.30;;
70970;SDS011;58632;51.718;19.446;2023-08-31T11:40:07;5.10;;;3.10;;
70970;SDS011;58632;51.718;19.446;2023-08-31T11:42:33;5.20;;;3.20;;
70970;SDS011;58632;51.718;19.446;2023-08-31T11:44:59;4.20;;;3.20;;
70970;SDS011;58632;51.718;19.446;2023-08-31T11:47:25;4.70;;;3.30;;
70970;SDS011;58632;51.718;19.446;2023-08-31T11:49:51;4.10;;;3.50;;
70970;SDS011;58632;51.718;19.446;2023-08-31T11:52:18;5.40;;;3.50;;
70970;SDS011;58632;51.718;19.446;2023-08-31T11:57:11;4.60;;;3.30;;
70970;SDS011;58632;51.718;19.446;2023-08-31T11:59:37;5.50;;;3.30;;
70970;SDS011;58632;51.718;19.446;2023-08-31T12:02:07;5.60;;;3.30;;
70970;SDS011;58632;51.718;19.446;2023-08-31T12:04:42;4.40;;;3.20;;
70970;SDS011;58632;51.718;19.446;2023-08-31T12:07:11;4.90;;;3.30;;
70970;SDS011;58632;51.718;19.446;2023-08-31T12:09:41;6.80;;;3.20;;
70970;SDS011;58632;51.718;19.446;2023-08-31T12:12:09;5.80;;;3.20;;
70970;SDS011;58632;51.718;19.446;2023-08-31T12:14:37;6.30;;;3.40;;
70970;SDS011;58632;51.718;19.446;2023-08-31T12:17:06;3.90;;;3.10;;
70970;SDS011;58632;51.718;19.446;2023-08-31T12:19:35;4.90;;;3.10;;
70970;SDS011;58632;51.718;19.446;2023-08-31T12:22:02;3.70;;;2.70;;
70970;SDS011;58632;51.718;19.446;2023-08-31T12:24:29;3.60;;;2.70;;
70970;SDS011;58632;51.718;19.446;2023-08-31T12:26:54;4.40;;;2.70;;
70970;SDS011;58632;51.718;19.446;2023-08-31T12:29:21;4.30;;;3.00;;
70970;SDS011;58632;51.718;19.446;2023-08-31T12:31:49;6.50;;;3.30;;
70970;SDS011;58632;51.718;19.446;2023-08-31T12:34:15;6.50;;;3.40;;
70970;SDS011;58632;51.718;19.446;2023-08-31T12:36:43;5.50;;;4.10;;
70970;SDS011;58632;51.718;19.446;2023-08-31T12:39:09;11.50;;;4.40;;
70970;SDS011;58632;51.718;19.446;2023-08-31T12:41:39;9.10;;;4.80;;
70970;SDS011;58632;51.718;19.446;2023-08-31T12:44:05;10.10;;;5.30;;
70970;SDS011;58632;51.718;19.446;2023-08-31T12:46:36;7.40;;;5.40;;
70970;SDS011;58632;51.718;19.446;2023-08-31T12:49:02;6.10;;;5.50;;
70970;SDS011;58632;51.718;19.446;2023-08-31T12:51:31;8.90;;;5.60;;
70970;SDS011;58632;51.718;19.446;2023-08-31T12:53:57;5.50;;;5.00;;
70970;SDS011;58632;51.718;19.446;2023-08-31T12:56:23;6.40;;;5.80;;
70970;SDS011;58632;51.718;19.446;2023-08-31T12:58:49;6.20;;;4.50;;
70970;SDS011;58632;51.718;19.446;2023-08-31T13:01:15;5.10;;;3.80;;
70970;SDS011;58632;51.718;19.446;2023-08-31T13:03:41;4.20;;;3.40;;
70970;SDS011;58632;51.718;19.446;2023-08-31T13:06:07;6.90;;;3.30;;
70970;SDS011;58632;51.718;19.446;2023-08-31T13:08:33;4.20;;;3.40;;
70970;SDS011;58632;51.718;19.446;2023-08-31T13:10:59;4.50;;;3.20;;
70970;SDS011;58632;51.718;19.446;2023-08-31T13:13:24;4.80;;;3.50;;
70970;SDS011;58632;51.718;19.446;2023-08-31T13:16:07;5.00;;;3.10;;
70970;SDS011;58632;51.718;19.446;2023-08-31T13:18:32;4.30;;;3.30;;
70970;SDS011;58632;51.718;19.446;2023-08-31T13:20:58;4.90;;;3.10;;
70970;SDS011;58632;51.718;19.446;2023-08-31T13:26:12;3.00;;;2.80;;
70970;SDS011;58632;51.718;19.446;2023-08-31T13:28:41;5.30;;;2.60;;
70970;SDS011;58632;51.718;19.446;2023-08-31T13:31:08;5.40;;;2.90;;
70970;SDS011;58632;51.718;19.446;2023-08-31T13:33:34;3.70;;;2.30;;
70970;SDS011;58632;51.718;19.446;2023-08-31T13:35:59;2.60;;;2.20;;
70970;SDS011;58632;51.718;19.446;2023-08-31T13:38:28;3.00;;;1.90;;
70970;SDS011;58632;51.718;19.446;2023-08-31T13:40:55;2.40;;;2.10;;
70970;SDS011;58632;51.718;19.446;2023-08-31T13:43:40;2.40;;;2.00;;
70970;SDS011;58632;51.718;19.446;2023-08-31T13:46:06;2.60;;;1.80;;
70970;SDS011;58632;51.718;19.446;2023-08-31T13:48:32;2.70;;;1.80;;
70970;SDS011;58632;51.718;19.446;2023-08-31T13:50:57;2.70;;;2.00;;
70970;SDS011;58632;51.718;19.446;2023-08-31T13:53:23;2.80;;;1.90;;
70970;SDS011;58632;51.718;19.446;2023-08-31T13:55:49;2.30;;;1.90;;
70970;SDS011;58632;51.718;19.446;2023-08-31T13:58:14;5.10;;;2.20;;
70970;SDS011;58632;51.718;19.446;2023-08-31T14:03:07;1.70;;;1.40;;
70970;SDS011;58632;51.718;19.446;2023-08-31T14:05:32;2.60;;;2.00;;
70970;SDS011;58632;51.718;19.446;2023-08-31T14:07:58;4.20;;;1.90;;
70970;SDS011;58632;51.718;19.446;2023-08-31T14:10:26;3.70;;;1.90;;
70970;SDS011;58632;51.718;19.446;2023-08-31T14:12:52;3.90;;;1.50;;
70970;SDS011;58632;51.718;19.446;2023-08-31T14:15:18;2.60;;;1.70;;
70970;SDS011;58632;51.718;19.446;2023-08-31T14:17:44;5.20;;;1.80;;
70970;SDS011;58632;51.718;19.446;2023-08-31T14:20:09;2.00;;;1.60;;
70970;SDS011;58632;51.718;19.446;2023-08-31T14:22:36;2.10;;;1.30;;
70970;SDS011;58632;51.718;19.446;2023-08-31T14:25:02;2.10;;;1.30;;
70970;SDS011;58632;51.718;19.446;2023-08-31T14:27:30;1.90;;;1.30;;
70970;SDS011;58632;51.718;19.446;2023-08-31T14:29:59;2.20;;;1.50;;
70970;SDS011;58632;51.718;19.446;2023-08-31T14:32:25;2.10;;;1.30;;
70970;SDS011;58632;51.718;19.446;2023-08-31T14:34:51;2.90;;;1.40;;
70970;SDS011;58632;51.718;19.446;2023-08-31T14:37:20;2.40;;;1.30;;
70970;SDS011;58632;51.718;19.446;2023-08-31T14:39:47;2.60;;;1.30;;
70970;SDS011;58632;51.718;19.446;2023-08-31T14:42:14;1.70;;;1.30;;
70970;SDS011;58632;51.718;19.446;2023-08-31T14:44:41;2.50;;;1.30;;
70970;SDS011;58632;51.718;19.446;2023-08-31T14:47:09;2.80;;;1.50;;
70970;SDS011;58632;51.718;19.446;2023-08-31T14:49:34;2.70;;;1.40;;
70970;SDS011;58632;51.718;19.446;2023-08-31T14:52:04;3.60;;;1.40;;
70970;SDS011;58632;51.718;19.446;2023-08-31T14:54:31;3.00;;;1.50;;
70970;SDS011;58632;51.718;19.446;2023-08-31T14:56:58;2.70;;;1.50;;
70970;SDS011;58632;51.718;19.446;2023-08-31T14:59:28;3.20;;;1.60;;
70970;SDS011;58632;51.718;19.446;2023-08-31T15:01:56;2.00;;;1.30;;
70970;SDS011;58632;51.718;19.446;2023-08-31T15:04:22;2.30;;;1.50;;
70970;SDS011;58632;51.718;19.446;2023-08-31T15:06:47;2.20;;;1.30;;
70970;SDS011;58632;51.718;19.446;2023-08-31T15:09:13;2.10;;;1.40;;
70970;SDS011;58632;51.718;19.446;2023-08-31T15:11:39;3.50;;;1.80;;
70970;SDS011;58632;51.718;19.446;2023-08-31T15:14:04;3.30;;;1.80;;
70970;SDS011;58632;51.718;19.446;2023-08-31T15:16:30;3.20;;;1.60;;
70970;SDS011;58632;51.718;19.446;2023-08-31T15:18:59;3.20;;;1.80;;